ΕΜΥ, Εθνική Μετεωρολογική Υπηρεσία - Δελτία Καιρού, Προγνώσεις

ΑΕΡΟΝΑΥΤΙΛΙΑ

GREEK AIRPORTS CODES

LGPL 192000Z AUTO 33016KT 280V340 //// // ////// 27/20 Q1006 RE//=

EUROPEAN AIRPORTS CODES

LFPO 192000Z AUTO 30006KT CAVOK 20/18 Q1018 TEMPO 2500 SHRASCT025CB=